Fykan — LLDJ — position and weather

sailwx.info

Track history (hours):
 
Tides and Currents Weather Stations Pressure Air Temp Water Temp Dewpoint Dewpoint Depression Visibility Wind Speed Wind Dir Waves Ship Positions

Fykan

Last reported at 2014-Nov-11 21:32 UTC. Time now 2014-Nov-24 12:30 UTC.
Position N 66°35' E 013°11'.
Warning: this ship's position is 12 days out of date.

Length 52 m; draft 3.3 m.

Type: Ship. MMSI: 259681000.

Date/timePositionNaut miles runAvg speedWind from/ knotsBaromVisibWave heightAir tempDewpointWater temp
2014-Nov-11 21:32N 66°35' E 013°11'0 0.3
2014-Nov-11 20:05N 66°36' E 013°11'1 0.9
2014-Nov-11 19:19N 66°36' E 013°12'1 0.7
2014-Nov-11 17:32N 66°35' E 013°11'1 0.5
2014-Nov-11 16:31N 66°34' E 013°11'3 2.7
2014-Nov-11 15:18N 66°32' E 013°15'5 3.6
2014-Nov-11 14:03N 66°36' E 013°12'0 0.1
2014-Nov-11 08:33N 66°36' E 013°13'4 1.5
2014-Nov-11 06:07N 66°33' E 013°12'2 0.2
2014-Nov-10 21:32N 66°35' E 013°11'0 0.1
2014-Nov-10 20:16N 66°35' E 013°11'1 0.2
2014-Nov-10 15:06N 66°34' E 013°11'1 0.3
2014-Nov-10 10:26N 66°33' E 013°13'3 1.5
2014-Nov-10 08:32N 66°35' E 013°12'3 1.1
2014-Nov-10 06:09N 66°33' E 013°12'2 0.2
2014-Nov-09 20:24N 66°35' E 013°11'2 0.2
2014-Nov-09 11:30N 66°33' E 013°12'1 0.0
2014-Nov-08 13:28N 66°34' E 013°11'0 0.1
2014-Nov-08 10:05N 66°34' E 013°11'2 1.2
2014-Nov-08 08:31N 66°36' E 013°12'3 1.4
2014-Nov-08 06:10N 66°33' E 013°12'2 0.2
2014-Nov-07 19:32N 66°34' E 013°11'1 0.1
2014-Nov-07 08:27N 66°35' E 013°12'1 0.1
2014-Nov-06 19:31N 66°34' E 013°11'1 0.3
2014-Nov-06 16:31N 66°33' E 013°11'3 0.3
2014-Nov-06 08:28N 66°36' E 013°12'3 1.5
2014-Nov-06 06:09N 66°33' E 013°13'2 0.2
2014-Nov-05 17:33N 66°35' E 013°11'1 0.2
2014-Nov-05 14:19N 66°35' E 013°12'2 0.4
2014-Nov-05 10:07N 66°34' E 013°11'5 2.0
2014-Nov-05 07:23N 66°36' E 012°59'4 5.1
2014-Nov-05 06:33N 66°34' E 012°50'1 0.1
2014-Nov-04 21:26N 66°34' E 012°54'3 0.9
2014-Nov-04 18:04N 66°36' E 012°59'3 5.3
2014-Nov-04 17:30N 66°34' E 012°54'2 0.3
2014-Nov-04 11:29N 66°34' E 012°50'4 0.8
2014-Nov-04 06:17N 66°36' E 012°59'4 5.7
2014-Nov-04 05:33N 66°34' E 012°50'1 0.1
2014-Nov-03 19:20N 66°34' E 012°48'2 8.1
2014-Nov-03 19:02N 66°34' E 012°54'3 5.6
2014-Nov-03 18:33N 66°36' E 012°59'5 1.2
2014-Nov-03 14:33N 66°34' E 012°47'2 1.1
2014-Nov-03 12:32N 66°35' E 012°42'7 5.0
2014-Nov-03 11:13N 66°35' E 012°59'1 0.3
2014-Nov-03 07:23N 66°36' E 012°59'5 5.3
2014-Nov-03 06:31N 66°34' E 012°49'2 0.2
2014-Nov-02 22:26N 66°35' E 012°45'6 5.9
2014-Nov-02 21:29N 66°35' E 012°59'0 0.1
2014-Nov-02 16:18N 66°36' E 012°59'5 5.6
2014-Nov-02 15:28N 66°34' E 012°48'3 1.4
2014-Nov-02 13:33N 66°32' E 012°45'10 9.7
2014-Nov-02 12:33N 66°22' E 012°42'  
Track history (hours):
 
Tides and Currents Weather Stations Pressure Air Temp Water Temp Dewpoint Dewpoint Depression Visibility Wind Speed Wind Dir Waves Ship Positions

Fykan

Last reported at 2014-Nov-11 21:32 UTC. Time now 2014-Nov-24 12:30 UTC.
Position N 66°35' E 013°11'.
Warning: this ship's position is 12 days out of date.

Length 52 m; draft 3.3 m.

Type: Ship. MMSI: 259681000.

Date/timePositionNaut miles runAvg speedWind from/ knotsBaromVisibWave heightAir tempDewpointWater temp
2014-Nov-11 21:32N 66°35' E 013°11'0 0.3
2014-Nov-11 20:05N 66°36' E 013°11'1 0.9
2014-Nov-11 19:19N 66°36' E 013°12'1 0.7
2014-Nov-11 17:32N 66°35' E 013°11'1 0.5
2014-Nov-11 16:31N 66°34' E 013°11'3 2.7
2014-Nov-11 15:18N 66°32' E 013°15'5 3.6
2014-Nov-11 14:03N 66°36' E 013°12'0 0.1
2014-Nov-11 08:33N 66°36' E 013°13'4 1.5
2014-Nov-11 06:07N 66°33' E 013°12'2 0.2
2014-Nov-10 21:32N 66°35' E 013°11'0 0.1
2014-Nov-10 20:16N 66°35' E 013°11'1 0.2
2014-Nov-10 15:06N 66°34' E 013°11'1 0.3
2014-Nov-10 10:26N 66°33' E 013°13'3 1.5
2014-Nov-10 08:32N 66°35' E 013°12'3 1.1
2014-Nov-10 06:09N 66°33' E 013°12'2 0.2
2014-Nov-09 20:24N 66°35' E 013°11'2 0.2
2014-Nov-09 11:30N 66°33' E 013°12'1 0.0
2014-Nov-08 13:28N 66°34' E 013°11'0 0.1
2014-Nov-08 10:05N 66°34' E 013°11'2 1.2
2014-Nov-08 08:31N 66°36' E 013°12'3 1.4
2014-Nov-08 06:10N 66°33' E 013°12'2 0.2
2014-Nov-07 19:32N 66°34' E 013°11'1 0.1
2014-Nov-07 08:27N 66°35' E 013°12'1 0.1
2014-Nov-06 19:31N 66°34' E 013°11'1 0.3
2014-Nov-06 16:31N 66°33' E 013°11'3 0.3
2014-Nov-06 08:28N 66°36' E 013°12'3 1.5
2014-Nov-06 06:09N 66°33' E 013°13'2 0.2
2014-Nov-05 17:33N 66°35' E 013°11'1 0.2
2014-Nov-05 14:19N 66°35' E 013°12'2 0.4
2014-Nov-05 10:07N 66°34' E 013°11'5 2.0
2014-Nov-05 07:23N 66°36' E 012°59'4 5.1
2014-Nov-05 06:33N 66°34' E 012°50'1 0.1
2014-Nov-04 21:26N 66°34' E 012°54'3 0.9
2014-Nov-04 18:04N 66°36' E 012°59'3 5.3
2014-Nov-04 17:30N 66°34' E 012°54'2 0.3
2014-Nov-04 11:29N 66°34' E 012°50'4 0.8
2014-Nov-04 06:17N 66°36' E 012°59'4 5.7
2014-Nov-04 05:33N 66°34' E 012°50'1 0.1
2014-Nov-03 19:20N 66°34' E 012°48'2 8.1
2014-Nov-03 19:02N 66°34' E 012°54'3 5.6
2014-Nov-03 18:33N 66°36' E 012°59'5 1.2
2014-Nov-03 14:33N 66°34' E 012°47'2 1.1
2014-Nov-03 12:32N 66°35' E 012°42'7 5.0
2014-Nov-03 11:13N 66°35' E 012°59'1 0.3
2014-Nov-03 07:23N 66°36' E 012°59'5 5.3
2014-Nov-03 06:31N 66°34' E 012°49'2 0.2
2014-Nov-02 22:26N 66°35' E 012°45'6 5.9
2014-Nov-02 21:29N 66°35' E 012°59'0 0.1
2014-Nov-02 16:18N 66°36' E 012°59'5 5.6
2014-Nov-02 15:28N 66°34' E 012°48'3 1.4
2014-Nov-02 13:33N 66°32' E 012°45'10 9.7
2014-Nov-02 12:33N 66°22' E 012°42'  

Dump ship's entire track history